sensor_id;sensor_type;location;lat;lon;timestamp;P1;durP1;ratioP1;P2;durP2;ratioP2
70457;SDS011;57919;56.194;95.716;2022-09-17T00:04:22;17.40;;;4.43;;
70457;SDS011;57919;56.194;95.716;2022-09-17T00:14:24;17.53;;;6.50;;
70457;SDS011;57919;56.194;95.716;2022-09-17T00:24:26;18.73;;;6.68;;
70457;SDS011;57919;56.194;95.716;2022-09-17T00:34:28;17.50;;;7.80;;
70457;SDS011;57919;56.194;95.716;2022-09-17T00:44:44;21.80;;;7.73;;
70457;SDS011;57919;56.194;95.716;2022-09-17T00:55:00;16.53;;;6.87;;
70457;SDS011;57919;56.194;95.716;2022-09-17T01:05:16;17.07;;;7.17;;
70457;SDS011;57919;56.194;95.716;2022-09-17T01:25:38;36.20;;;17.17;;
70457;SDS011;57919;56.194;95.716;2022-09-17T01:47:21;41.47;;;16.33;;
70457;SDS011;57919;56.194;95.716;2022-09-17T02:07:18;29.55;;;12.90;;
70457;SDS011;57919;56.194;95.716;2022-09-17T02:17:24;37.43;;;17.57;;
70457;SDS011;57919;56.194;95.716;2022-09-17T02:27:44;27.83;;;14.27;;
70457;SDS011;57919;56.194;95.716;2022-09-17T02:37:49;49.60;;;22.20;;
70457;SDS011;57919;56.194;95.716;2022-09-17T03:08:18;61.90;;;23.87;;
70457;SDS011;57919;56.194;95.716;2022-09-17T03:18:21;53.33;;;26.43;;
70457;SDS011;57919;56.194;95.716;2022-09-17T03:28:24;45.45;;;24.70;;
70457;SDS011;57919;56.194;95.716;2022-09-17T03:38:27;45.13;;;22.10;;
70457;SDS011;57919;56.194;95.716;2022-09-17T03:48:29;48.05;;;20.50;;
70457;SDS011;57919;56.194;95.716;2022-09-17T03:58:31;423.80;;;231.20;;
70457;SDS011;57919;56.194;95.716;2022-09-17T04:08:33;58.50;;;33.07;;
70457;SDS011;57919;56.194;95.716;2022-09-17T04:18:37;50.85;;;20.20;;
70457;SDS011;57919;56.194;95.716;2022-09-17T04:28:38;48.57;;;20.57;;
70457;SDS011;57919;56.194;95.716;2022-09-17T04:38:41;45.17;;;24.30;;
70457;SDS011;57919;56.194;95.716;2022-09-17T04:48:42;52.10;;;25.63;;
70457;SDS011;57919;56.194;95.716;2022-09-17T04:58:44;51.20;;;22.33;;
70457;SDS011;57919;56.194;95.716;2022-09-17T05:08:46;43.70;;;21.48;;
70457;SDS011;57919;56.194;95.716;2022-09-17T05:18:48;47.97;;;18.67;;
70457;SDS011;57919;56.194;95.716;2022-09-17T05:28:53;46.42;;;17.58;;
70457;SDS011;57919;56.194;95.716;2022-09-17T05:38:55;28.37;;;11.43;;
70457;SDS011;57919;56.194;95.716;2022-09-17T05:48:57;15.33;;;5.90;;
70457;SDS011;57919;56.194;95.716;2022-09-17T05:58:59;51.63;;;25.65;;
70457;SDS011;57919;56.194;95.716;2022-09-17T06:09:01;11.17;;;3.73;;
70457;SDS011;57919;56.194;95.716;2022-09-17T06:19:03;6.72;;;2.42;;
70457;SDS011;57919;56.194;95.716;2022-09-17T06:29:05;7.53;;;2.67;;
70457;SDS011;57919;56.194;95.716;2022-09-17T06:39:07;48.67;;;4.07;;
70457;SDS011;57919;56.194;95.716;2022-09-17T06:49:11;12.40;;;3.85;;
70457;SDS011;57919;56.194;95.716;2022-09-17T06:59:13;17.97;;;5.47;;
70457;SDS011;57919;56.194;95.716;2022-09-17T07:09:15;17.27;;;4.25;;
70457;SDS011;57919;56.194;95.716;2022-09-17T07:19:19;44.37;;;6.23;;
70457;SDS011;57919;56.194;95.716;2022-09-17T07:29:21;9.83;;;1.83;;
70457;SDS011;57919;56.194;95.716;2022-09-17T07:39:26;13.75;;;3.05;;
70457;SDS011;57919;56.194;95.716;2022-09-17T07:49:28;23.40;;;3.43;;
70457;SDS011;57919;56.194;95.716;2022-09-17T07:59:31;8.32;;;2.40;;
70457;SDS011;57919;56.194;95.716;2022-09-17T08:09:33;15.33;;;2.67;;
70457;SDS011;57919;56.194;95.716;2022-09-17T08:19:34;8.87;;;1.77;;
70457;SDS011;57919;56.194;95.716;2022-09-17T08:29:36;22.00;;;2.45;;
70457;SDS011;57919;56.194;95.716;2022-09-17T08:39:38;8.47;;;2.00;;
70457;SDS011;57919;56.194;95.716;2022-09-17T08:49:43;25.50;;;8.35;;
70457;SDS011;57919;56.194;95.716;2022-09-17T09:00:08;40.63;;;27.07;;
70457;SDS011;57919;56.194;95.716;2022-09-17T09:10:20;11.20;;;5.37;;
70457;SDS011;57919;56.194;95.716;2022-09-17T09:41:05;201.15;;;42.08;;
70457;SDS011;57919;56.194;95.716;2022-09-17T10:01:59;14.07;;;4.47;;
70457;SDS011;57919;56.194;95.716;2022-09-17T10:32:19;15.40;;;7.28;;
70457;SDS011;57919;56.194;95.716;2022-09-17T10:42:23;16.00;;;7.70;;
70457;SDS011;57919;56.194;95.716;2022-09-17T11:13:08;17.90;;;4.27;;
70457;SDS011;57919;56.194;95.716;2022-09-17T12:04:41;124.10;;;49.10;;
70457;SDS011;57919;56.194;95.716;2022-09-17T12:15:34;169.20;;;61.20;;
70457;SDS011;57919;56.194;95.716;2022-09-17T12:25:22;168.70;;;61.53;;
70457;SDS011;57919;56.194;95.716;2022-09-17T12:45:55;273.58;;;95.80;;
70457;SDS011;57919;56.194;95.716;2022-09-17T12:56:20;247.07;;;98.07;;
70457;SDS011;57919;56.194;95.716;2022-09-17T13:27:05;242.93;;;85.43;;
70457;SDS011;57919;56.194;95.716;2022-09-17T13:37:21;250.95;;;89.50;;
70457;SDS011;57919;56.194;95.716;2022-09-17T13:47:25;281.27;;;95.40;;
70457;SDS011;57919;56.194;95.716;2022-09-17T13:57:30;337.08;;;94.68;;
70457;SDS011;57919;56.194;95.716;2022-09-17T14:07:47;278.13;;;100.63;;
70457;SDS011;57919;56.194;95.716;2022-09-17T14:17:51;315.87;;;110.87;;
70457;SDS011;57919;56.194;95.716;2022-09-17T14:27:56;337.08;;;100.18;;
70457;SDS011;57919;56.194;95.716;2022-09-17T14:38:14;216.37;;;85.27;;
70457;SDS011;57919;56.194;95.716;2022-09-17T14:48:25;264.65;;;102.90;;
70457;SDS011;57919;56.194;95.716;2022-09-17T15:08:33;323.33;;;98.73;;
70457;SDS011;57919;56.194;95.716;2022-09-17T15:18:37;247.88;;;85.50;;
70457;SDS011;57919;56.194;95.716;2022-09-17T15:28:42;293.77;;;115.43;;
70457;SDS011;57919;56.194;95.716;2022-09-17T15:38:46;281.02;;;104.32;;
70457;SDS011;57919;56.194;95.716;2022-09-17T15:48:49;273.50;;;98.90;;
70457;SDS011;57919;56.194;95.716;2022-09-17T15:59:01;190.00;;;75.73;;
70457;SDS011;57919;56.194;95.716;2022-09-17T16:19:57;172.00;;;65.70;;
70457;SDS011;57919;56.194;95.716;2022-09-17T16:30:02;197.85;;;61.72;;
70457;SDS011;57919;56.194;95.716;2022-09-17T16:40:15;121.40;;;48.13;;
70457;SDS011;57919;56.194;95.716;2022-09-17T16:50:18;77.33;;;30.40;;
70457;SDS011;57919;56.194;95.716;2022-09-17T17:00:20;51.22;;;19.58;;
70457;SDS011;57919;56.194;95.716;2022-09-17T17:10:22;33.73;;;14.00;;
70457;SDS011;57919;56.194;95.716;2022-09-17T17:20:26;19.80;;;6.97;;
70457;SDS011;57919;56.194;95.716;2022-09-17T17:30:28;9.80;;;3.87;;
70457;SDS011;57919;56.194;95.716;2022-09-17T17:40:30;15.20;;;3.93;;
70457;SDS011;57919;56.194;95.716;2022-09-17T17:50:32;9.77;;;4.55;;
70457;SDS011;57919;56.194;95.716;2022-09-17T18:00:34;10.40;;;3.50;;
70457;SDS011;57919;56.194;95.716;2022-09-17T18:10:35;9.53;;;3.67;;
70457;SDS011;57919;56.194;95.716;2022-09-17T18:20:37;11.20;;;4.20;;
70457;SDS011;57919;56.194;95.716;2022-09-17T18:30:39;14.73;;;4.30;;
70457;SDS011;57919;56.194;95.716;2022-09-17T18:40:42;13.10;;;5.63;;
70457;SDS011;57919;56.194;95.716;2022-09-17T18:50:55;16.97;;;7.07;;
70457;SDS011;57919;56.194;95.716;2022-09-17T19:01:03;16.23;;;6.57;;
70457;SDS011;57919;56.194;95.716;2022-09-17T19:11:05;15.40;;;5.72;;
70457;SDS011;57919;56.194;95.716;2022-09-17T19:21:11;13.50;;;5.43;;
70457;SDS011;57919;56.194;95.716;2022-09-17T19:31:15;14.63;;;5.80;;
70457;SDS011;57919;56.194;95.716;2022-09-17T19:41:18;11.07;;;3.67;;
70457;SDS011;57919;56.194;95.716;2022-09-17T19:51:24;7.33;;;2.67;;
70457;SDS011;57919;56.194;95.716;2022-09-17T20:01:27;9.82;;;2.70;;
70457;SDS011;57919;56.194;95.716;2022-09-17T20:11:28;7.00;;;2.57;;
70457;SDS011;57919;56.194;95.716;2022-09-17T20:21:31;11.47;;;3.20;;
70457;SDS011;57919;56.194;95.716;2022-09-17T20:31:33;8.13;;;2.93;;
70457;SDS011;57919;56.194;95.716;2022-09-17T20:41:38;11.53;;;2.93;;
70457;SDS011;57919;56.194;95.716;2022-09-17T20:51:41;9.20;;;3.03;;
70457;SDS011;57919;56.194;95.716;2022-09-17T21:01:44;8.47;;;2.70;;
70457;SDS011;57919;56.194;95.716;2022-09-17T21:11:47;10.10;;;4.50;;
70457;SDS011;57919;56.194;95.716;2022-09-17T21:21:49;9.43;;;3.70;;
70457;SDS011;57919;56.194;95.716;2022-09-17T21:31:56;9.60;;;3.60;;
70457;SDS011;57919;56.194;95.716;2022-09-17T21:41:58;19.52;;;3.58;;
70457;SDS011;57919;56.194;95.716;2022-09-17T21:52:00;8.03;;;3.20;;
70457;SDS011;57919;56.194;95.716;2022-09-17T22:02:02;9.50;;;2.97;;
70457;SDS011;57919;56.194;95.716;2022-09-17T22:12:04;8.57;;;3.08;;
70457;SDS011;57919;56.194;95.716;2022-09-17T22:22:08;8.57;;;3.83;;
70457;SDS011;57919;56.194;95.716;2022-09-17T22:32:09;11.63;;;4.13;;
70457;SDS011;57919;56.194;95.716;2022-09-17T22:42:11;12.85;;;4.05;;
70457;SDS011;57919;56.194;95.716;2022-09-17T22:52:13;8.07;;;3.13;;
70457;SDS011;57919;56.194;95.716;2022-09-17T23:02:15;8.43;;;3.70;;
70457;SDS011;57919;56.194;95.716;2022-09-17T23:12:17;15.60;;;4.60;;
70457;SDS011;57919;56.194;95.716;2022-09-17T23:22:21;14.27;;;3.90;;
70457;SDS011;57919;56.194;95.716;2022-09-17T23:32:23;17.95;;;4.28;;
70457;SDS011;57919;56.194;95.716;2022-09-17T23:42:25;19.13;;;9.37;;
70457;SDS011;57919;56.194;95.716;2022-09-17T23:52:27;15.27;;;7.93;;
